Lisse, Netherlands
Current Conditions -  °F | °C
As of 1:25 PM on Monday 20 Oct 2014 (Local Time) from EHAM Reporting Station
Few Clouds Few Clouds  
Wind Chill: 16°   Ceiling: Unl
Heat Index: 16°   Visibility: 6mi
Dew Point: 12°   Wind: 18mph
Humidity: 77%   Direction: 270°W
Pressure: 29.97"   Gusts: NA
Location:  52.26°N, 4.56°E
Report Text: EHAM 201125Z 27016KT 230V300 9999 FEW020TCU 16/12 Q1015 NOSIG
Loading
Personal Weather Stations






























Interactive Weather Map
Tropical Storm Tracking
New forecast layout! Learn more

10-Day Weather Forecast

Advertisements
Track Severe Weather on mobile